Time;durP1;ratioP1;P1;durP2;ratioP2;P2;SDS_P1;SDS_P2;PMS_P1;PMS_P2;Temp;Humidity;BMP_temperature;BMP_pressure;BME280_temperature;BME280_humidity;BME280_pressure;Samples;Min_cycle;Max_cycle;Signal;HPM_P1;HPM_P2
2022/09/04 00:00:42;;;;;;;2.37;1.60;;;;;;;9.52;100.00;99700.88;5029709;28;20044;-78
2022/09/04 00:03:41;;;;;;;2.27;1.47;;;;;;;9.53;100.00;99703.38;5014331;28;20171;-78
2022/09/04 00:06:15;;;;;;;2.63;1.50;;;;;;;9.47;100.00;99704.13;4988512;28;20438;-78
2022/09/04 00:08:53;;;;;;;3.28;1.73;;;;;;;9.58;100.00;99710.81;5012091;28;20059;-77
2022/09/04 00:11:36;;;;;;;3.83;1.48;;;;;;;9.59;100.00;99691.84;5030562;28;20095;-77
2022/09/04 00:14:38;;;;;;;2.75;1.60;;;;;;;9.60;100.00;99690.00;5029100;28;20040;-78
2022/09/04 00:17:35;;;;;;;3.17;1.50;;;;;;;9.58;100.00;99700.09;5023840;28;20171;-77
2022/09/04 00:20:05;;;;;;;3.40;1.30;;;;;;;9.61;100.00;99700.53;5025472;28;20104;-76
2022/09/04 00:22:35;;;;;;;3.42;1.80;;;;;;;9.61;100.00;99689.81;5030301;28;20113;-77
2022/09/04 00:25:07;;;;;;;1.98;1.30;;;;;;;9.62;100.00;99663.81;4996277;28;20132;-77
2022/09/04 00:27:44;;;;;;;3.10;1.80;;;;;;;9.73;100.00;99682.03;5013917;28;20120;-76
2022/09/04 00:30:20;;;;;;;3.42;1.88;;;;;;;9.74;100.00;99682.84;5029844;28;20029;-77
2022/09/04 00:32:53;;;;;;;3.33;1.92;;;;;;;9.86;100.00;99679.44;5030118;28;20033;-76
2022/09/04 00:35:23;;;;;;;5.45;2.60;;;;;;;9.91;100.00;99670.78;4996359;28;20037;-77
2022/09/04 00:38:12;;;;;;;3.90;2.00;;;;;;;10.05;100.00;99669.81;5013475;28;20099;-76
2022/09/04 00:40:42;;;;;;;3.45;2.17;;;;;;;10.13;100.00;99648.19;5005448;28;20773;-77
2022/09/04 00:43:28;;;;;;;4.47;2.28;;;;;;;10.25;100.00;99643.06;5028517;28;20645;-77
2022/09/04 00:45:57;;;;;;;8.07;2.72;;;;;;;10.34;100.00;99652.63;5028372;28;20140;-77
2022/09/04 00:48:37;;;;;;;6.22;2.90;;;;;;;10.38;100.00;99644.19;5031147;28;20033;-78
2022/09/04 00:51:29;;;;;;;4.65;2.78;;;;;;;10.36;100.00;99644.38;5029661;28;20182;-75
2022/09/04 00:54:27;;;;;;;5.13;2.20;;;;;;;10.37;100.00;99640.63;5024469;28;20033;-78
2022/09/04 00:57:22;;;;;;;3.90;2.70;;;;;;;10.37;100.00;99643.31;4990077;28;20043;-76
2022/09/04 00:59:51;;;;;;;4.38;2.55;;;;;;;10.19;100.00;99608.94;5010536;28;20095;-76
2022/09/04 01:02:20;;;;;;;6.78;2.92;;;;;;;10.37;100.00;99629.88;5029291;28;20056;-77
2022/09/04 01:05:05;;;;;;;6.25;3.20;;;;;;;10.20;100.00;99599.84;5011596;28;20479;-76
2022/09/04 01:07:59;;;;;;;4.97;3.17;;;;;;;10.34;100.00;99611.50;5029716;28;20479;-77
2022/09/04 01:10:35;;;;;;;6.10;3.28;;;;;;;10.11;100.00;99593.00;5013514;28;20497;-77
2022/09/04 01:13:40;;;;;;;3.80;2.47;;;;;;;10.37;100.00;99612.94;5028619;28;20108;-76
2022/09/04 01:16:13;;;;;;;8.80;2.88;;;;;;;10.39;100.00;99618.94;5019663;28;20041;-76
2022/09/04 01:18:47;;;;;;;6.07;2.50;;;;;;;10.44;100.00;99635.28;5020053;28;20038;-77
2022/09/04 01:21:50;;;;;;;5.50;2.85;;;;;;;10.46;100.00;99644.81;5007550;28;20030;-77
2022/09/04 01:24:53;;;;;;;8.23;3.38;;;;;;;10.47;100.00;99614.22;5036523;28;20072;-76
2022/09/04 01:27:26;;;;;;;6.20;2.97;;;;;;;10.49;100.00;99611.34;5037211;28;20064;-76
2022/09/04 01:30:04;;;;;;;;;;;;;;;10.54;100.00;99619.63;5020061;28;20467;-77
2022/09/04 01:32:48;;;;;;;6.70;3.33;;;;;;;10.63;100.00;99633.69;5009187;28;19956;-76
2022/09/04 01:35:38;;;;;;;9.35;3.90;;;;;;;10.74;100.00;99623.19;5019657;28;20059;-77
2022/09/04 01:38:21;;;;;;;10.90;3.60;;;;;;;10.91;100.00;99628.16;5046947;28;20410;-77
2022/09/04 01:41:22;;;;;;;9.10;3.63;;;;;;;10.98;100.00;99620.91;5019321;28;20124;-77
2022/09/04 01:43:49;;;;;;;12.68;3.78;;;;;;;11.12;100.00;99627.13;5017557;28;20507;-77
2022/09/04 01:46:23;;;;;;;15.10;4.30;;;;;;;11.15;100.00;99615.94;5036080;28;20094;-77
2022/09/04 01:49:15;;;;;;;9.88;4.07;;;;;;;11.15;100.00;99624.03;5035995;28;20073;-77
2022/09/04 01:51:59;;;;;;;4.73;2.57;;;;;;;11.17;100.00;99633.53;5019503;28;20033;-77
2022/09/04 01:54:43;;;;;;;5.57;3.50;;;;;;;11.18;100.00;99620.91;5032983;28;20064;-76
2022/09/04 01:57:35;;;;;;;15.25;4.05;;;;;;;11.18;100.00;99637.06;5019664;28;20120;-76
2022/09/04 02:00:01;;;;;;;9.77;2.85;;;;;;;11.17;100.00;99614.72;5034141;28;20110;-77
2022/09/04 02:03:01;;;;;;;3.20;0.43;;;;;;;11.17;100.00;99609.31;5034321;28;20557;-76
2022/09/04 02:05:47;;;;;;;0.52;0.52;;;;;;;11.18;100.00;99619.03;5019352;28;20069;-76
2022/09/04 02:08:27;;;;;;;0.30;0.30;;;;;;;11.21;100.00;99615.09;5034311;28;20069;-77
2022/09/04 02:11:11;;;;;;;0.20;0.20;;;;;;;11.21;100.00;99602.47;5030595;28;20034;-78
2022/09/04 02:13:55;;;;;;;0.20;0.20;;;;;;;11.19;100.00;99590.28;5035508;28;20037;-78
2022/09/04 02:16:48;;;;;;;0.52;0.52;;;;;;;11.22;100.00;99589.88;5036958;28;20052;-78
2022/09/04 02:19:42;;;;;;;0.30;0.30;;;;;;;11.27;100.00;99592.75;5020058;28;20060;-79
2022/09/04 02:22:14;;;;;;;1.05;1.05;;;;;;;11.29;100.00;99577.22;5030409;28;20030;-79
2022/09/04 02:24:58;;;;;;;0.52;0.52;;;;;;;11.32;100.00;99562.53;5030851;28;20025;-79
2022/09/04 02:27:26;;;;;;;0.20;0.20;;;;;;;11.20;100.00;99543.50;5033704;28;20052;-80
2022/09/04 02:29:57;;;;;;;0.30;0.30;;;;;;;11.37;100.00;99579.69;4998505;28;20083;-80
2022/09/04 02:32:38;;;;;;;0.30;0.30;;;;;;;11.40;100.00;99565.81;5015765;28;20033;-80
2022/09/04 02:35:07;;;;;;;0.30;0.30;;;;;;;11.35;100.00;99554.88;5016180;28;20037;-81
2022/09/04 02:37:42;;;;;;;0.30;0.30;;;;;;;11.30;100.00;99549.28;5032500;28;20025;-80
2022/09/04 02:40:23;;;;;;;0.32;0.32;;;;;;;11.44;100.00;99566.22;5014300;28;20034;-81
2022/09/04 02:43:03;;;;;;;0.50;0.50;;;;;;;11.44;100.00;99560.84;5025830;28;20041;-80
2022/09/04 02:45:36;;;;;;;0.30;0.30;;;;;;;11.48;100.00;99555.84;5032259;28;20033;-81
2022/09/04 02:48:27;;;;;;;0.30;0.30;;;;;;;11.50;100.00;99557.31;5010730;28;20467;-81
2022/09/04 02:51:38;;;;;;;0.30;0.30;;;;;;;11.53;100.00;99551.50;5031982;28;20033;-82
2022/09/04 02:54:20;;;;;;;0.30;0.30;;;;;;;11.48;100.00;99537.03;5030203;28;20042;-82
2022/09/04 02:57:11;;;;;;;0.20;0.20;;;;;;;11.54;100.00;99547.78;5014652;28;20029;-82
2022/09/04 03:00:21;;;;;;;0.30;0.30;;;;;;;11.54;100.00;99571.19;5015527;28;20029;-81
2022/09/04 03:03:08;;;;;;;0.30;0.30;;;;;;;11.53;100.00;99574.91;5012316;28;20083;-82
2022/09/04 03:05:52;;;;;;;0.20;0.20;;;;;;;11.37;100.00;99543.88;5031933;28;20056;-81
2022/09/04 03:08:22;;;;;;;0.20;0.20;;;;;;;11.46;100.00;99566.84;4997784;28;20037;-80
2022/09/04 03:10:55;;;;;;;0.20;0.20;;;;;;;11.41;100.00;99572.88;5031795;28;20033;-82
2022/09/04 03:13:20;;;;;;;0.30;0.30;;;;;;;11.31;100.00;99545.56;5015070;28;20029;-83
2022/09/04 03:16:20;;;;;;;0.20;0.20;;;;;;;11.29;100.00;99538.72;5031188;28;20254;-82
2022/09/04 03:18:59;;;;;;;0.30;0.30;;;;;;;11.20;100.00;99532.75;5027750;28;20051;-82
2022/09/04 03:21:52;;;;;;;0.30;0.30;;;;;;;11.18;100.00;99530.25;5015225;28;20029;-82
2022/09/04 03:24:18;;;;;;;0.30;0.30;;;;;;;11.19;100.00;99531.94;5014043;28;20060;-81
2022/09/04 03:26:50;;;;;;;0.30;0.30;;;;;;;11.06;100.00;99520.34;5031313;28;20483;-81
2022/09/04 03:29:53;;;;;;;0.30;0.30;;;;;;;11.12;100.00;99549.94;5029803;28;20025;-82
2022/09/04 03:32:31;;;;;;;0.30;0.30;;;;;;;11.04;100.00;99555.53;5028229;28;20488;-81
2022/09/04 03:35:12;;;;;;;0.55;0.55;;;;;;;11.00;100.00;99555.09;5030047;28;20036;-81
2022/09/04 03:37:49;;;;;;;0.30;0.30;;;;;;;10.94;100.00;99555.13;5029307;28;20041;-80
2022/09/04 03:40:35;;;;;;;0.30;0.30;;;;;;;10.90;100.00;99570.84;5030551;28;20128;-81
2022/09/04 03:43:07;;;;;;;0.30;0.30;;;;;;;10.86;100.00;99556.16;5031051;28;20459;-80
2022/09/04 03:45:41;;;;;;;0.30;0.30;;;;;;;10.74;100.00;99533.59;5030435;28;20033;-81
2022/09/04 03:48:25;;;;;;;0.30;0.30;;;;;;;10.77;100.00;99549.34;5030490;28;20418;-81
2022/09/04 03:51:06;;;;;;;0.30;0.30;;;;;;;10.71;100.00;99558.22;5007531;28;20133;-81
2022/09/04 03:53:41;;;;;;;0.30;0.30;;;;;;;10.63;100.00;99559.25;5031192;28;20029;-80
2022/09/04 03:56:28;;;;;;;0.30;0.30;;;;;;;10.59;100.00;99541.06;5031081;28;20021;-81
2022/09/04 03:59:04;;;;;;;0.30;0.30;;;;;;;10.50;100.00;99518.91;5046088;28;20400;-81
2022/09/04 04:01:40;;;;;;;0.30;0.30;;;;;;;10.48;100.00;99527.19;5023317;28;20395;-81
2022/09/04 04:04:34;;;;;;;0.30;0.30;;;;;;;10.35;100.00;99548.69;5028186;28;20035;-80
2022/09/04 04:07:11;;;;;;;0.30;0.30;;;;;;;10.13;100.00;99567.59;4998692;28;20040;-80
2022/09/04 04:09:40;;;;;;;0.30;0.30;;;;;;;9.93;100.00;99566.72;5013816;28;20498;-80
2022/09/04 04:12:38;;;;;;;0.30;0.30;;;;;;;9.79;100.00;99562.28;5029245;28;20497;-80
2022/09/04 04:15:42;;;;;;;0.30;0.30;;;;;;;9.68;100.00;99564.53;5014250;28;20034;-80
2022/09/04 04:18:45;;;;;;;0.30;0.30;;;;;;;9.58;100.00;99564.06;5020224;28;20091;-80
2022/09/04 04:21:22;;;;;;;0.30;0.30;;;;;;;9.53;100.00;99568.38;5004446;28;20125;-80
2022/09/04 04:24:03;;;;;;;0.30;0.30;;;;;;;9.43;100.00;99563.38;5025517;28;20208;-79
2022/09/04 04:26:37;;;;;;;0.30;0.30;;;;;;;9.41;100.00;99579.66;5013865;28;20079;-80
2022/09/04 04:29:43;;;;;;;0.30;0.30;;;;;;;9.32;100.00;99578.16;5031483;28;20026;-80
2022/09/04 04:32:12;;;;;;;0.30;0.30;;;;;;;9.27;100.00;99579.78;5026444;28;20495;-80
2022/09/04 04:35:07;;;;;;;0.30;0.30;;;;;;;9.21;100.00;99573.34;5030338;28;20036;-79
2022/09/04 04:37:37;;;;;;;0.28;0.28;;;;;;;9.25;100.00;99570.06;5029735;28;20025;-79
2022/09/04 04:40:06;;;;;;;0.30;0.30;;;;;;;9.27;100.00;99561.00;5013597;28;20065;-79
2022/09/04 04:42:55;;;;;;;0.30;0.30;;;;;;;9.31;100.00;99559.56;5028588;28;20034;-79
2022/09/04 04:45:50;;;;;;;0.30;0.30;;;;;;;9.29;100.00;99566.97;5029565;28;20120;-79
2022/09/04 04:48:35;;;;;;;0.30;0.30;;;;;;;9.39;100.00;99570.13;5029143;28;20589;-80
2022/09/04 04:51:19;;;;;;;0.30;0.30;;;;;;;9.56;100.00;99592.13;5024183;28;20084;-79
2022/09/04 04:54:36;;;;;;;0.30;0.30;;;;;;;9.56;100.00;99598.31;5023034;28;20083;-79
2022/09/04 04:57:20;;;;;;;0.30;0.30;;;;;;;9.67;100.00;99602.31;5023080;28;20386;-79
2022/09/04 05:00:05;;;;;;;0.30;0.30;;;;;;;9.74;100.00;99619.28;5013454;28;20033;-79
2022/09/04 05:02:59;;;;;;;0.30;0.30;;;;;;;9.83;100.00;99617.25;5012395;28;20044;-79
2022/09/04 05:05:49;;;;;;;0.30;0.30;;;;;;;9.91;100.00;99611.72;5017444;28;20129;-79
2022/09/04 05:08:26;;;;;;;0.30;0.30;;;;;;;9.93;100.00;99612.34;5009569;28;20061;-81
2022/09/04 05:10:58;;;;;;;0.30;0.30;;;;;;;9.96;100.00;99606.56;5028393;28;20059;-79
2022/09/04 05:14:15;;;;;;;0.30;0.30;;;;;;;9.98;100.00;99609.06;5028221;28;20510;-79
2022/09/04 05:16:54;;;;;;;0.30;0.30;;;;;;;9.83;100.00;99603.84;5010940;28;20056;-79
2022/09/04 05:19:55;;;;;;;0.30;0.30;;;;;;;9.65;100.00;99613.22;5013269;28;20029;-79
2022/09/04 05:22:33;;;;;;;0.25;0.25;;;;;;;9.47;100.00;99610.22;5024646;28;20403;-79
2022/09/04 05:25:26;;;;;;;0.30;0.30;;;;;;;9.24;100.00;99602.47;5029554;28;20104;-79
2022/09/04 05:28:04;;;;;;;0.30;0.30;;;;;;;9.20;100.00;99610.03;5029117;28;20128;-79
2022/09/04 05:30:38;;;;;;;0.30;0.30;;;;;;;9.17;100.00;99623.03;5029048;28;20109;-79
2022/09/04 05:33:23;;;;;;;0.30;0.30;;;;;;;9.03;100.00;99648.91;4996885;28;20036;-79
2022/09/04 05:35:57;;;;;;;0.30;0.30;;;;;;;9.00;100.00;99642.09;5022434;28;20042;-79
2022/09/04 05:38:22;;;;;;;;;;;;;;;9.10;100.00;99643.59;5011479;28;20034;-79
2022/09/04 05:41:31;;;;;;;0.30;0.30;;;;;;;9.34;100.00;99642.34;5030574;28;19913;-79
2022/09/04 05:44:05;;;;;;;0.30;0.30;;;;;;;9.63;100.00;99638.59;4990689;28;20079;-79
2022/09/04 05:47:19;;;;;;;0.30;0.30;;;;;;;9.73;100.00;99662.41;5030188;28;20033;-79
2022/09/04 05:50:22;;;;;;;0.30;0.30;;;;;;;9.73;100.00;99673.16;4984548;28;20498;-79
2022/09/04 05:53:19;;;;;;;0.40;0.40;;;;;;;9.65;100.00;99688.38;5029197;28;20064;-79
2022/09/04 05:56:00;;;;;;;0.30;0.30;;;;;;;9.45;100.00;99695.47;5005094;28;20033;-79
2022/09/04 05:58:46;;;;;;;0.30;0.30;;;;;;;9.37;100.00;99704.50;5027006;28;20044;-79
2022/09/04 06:01:22;;;;;;;0.30;0.30;;;;;;;9.38;100.00;99706.13;5032658;28;20099;-79
2022/09/04 06:04:05;;;;;;;0.30;0.30;;;;;;;9.44;100.00;99715.25;5026758;28;20102;-79
2022/09/04 06:07:01;;;;;;;0.30;0.30;;;;;;;9.39;100.00;99710.50;5033734;28;20033;-80
2022/09/04 06:09:43;;;;;;;0.30;0.30;;;;;;;9.15;100.00;99674.16;5015825;28;20041;-79
2022/09/04 06:12:12;;;;;;;0.40;0.40;;;;;;;9.41;100.00;99716.47;5015595;28;20048;-80
2022/09/04 06:14:54;;;;;;;0.35;0.35;;;;;;;9.46;100.00;99726.63;5028663;28;20045;-80
2022/09/04 06:17:32;;;;;;;0.40;0.40;;;;;;;9.57;100.00;99746.75;5014673;28;20084;-79
2022/09/04 06:20:29;;;;;;;0.30;0.30;;;;;;;9.64;100.00;99753.84;5012526;28;20132;-80
2022/09/04 06:23:16;;;;;;;0.38;0.38;;;;;;;9.75;100.00;99754.31;5026832;28;20037;-81
2022/09/04 06:25:56;;;;;;;0.40;0.40;;;;;;;9.79;100.00;99756.44;5026984;28;20021;-79
2022/09/04 06:28:26;;;;;;;0.40;0.40;;;;;;;10.00;100.00;99760.94;5027423;28;20887;-80
2022/09/04 06:30:51;;;;;;;0.30;0.30;;;;;;;10.19;100.00;99767.44;5030050;28;20108;-80
2022/09/04 06:33:28;;;;;;;0.35;0.35;;;;;;;10.11;100.00;99763.06;5028951;28;20104;-79
2022/09/04 06:36:34;;;;;;;0.30;0.30;;;;;;;10.30;100.00;99771.47;5031835;28;20139;-80
2022/09/04 06:39:31;;;;;;;0.30;0.30;;;;;;;10.70;100.00;99790.47;4994559;28;20045;-79
2022/09/04 06:42:05;;;;;;;0.40;0.40;;;;;;;10.67;100.00;99780.13;4992992;28;20044;-78
2022/09/04 06:45:30;;;;;;;0.35;0.35;;;;;;;10.52;100.00;99799.06;5028349;28;20057;-79
2022/09/04 06:47:58;;;;;;;0.30;0.30;;;;;;;10.27;100.00;99791.50;4959415;28;20121;-79
2022/09/04 06:50:27;;;;;;;0.30;0.30;;;;;;;10.16;100.00;99788.47;5041759;28;20567;-79
2022/09/04 06:52:56;;;;;;;0.30;0.30;;;;;;;10.13;100.00;99806.66;5008593;28;20037;-80
2022/09/04 06:55:50;;;;;;;0.40;0.40;;;;;;;10.09;100.00;99810.75;5027914;28;20041;-79
2022/09/04 06:58:44;;;;;;;0.30;0.30;;;;;;;10.23;100.00;99809.00;5030640;28;20041;-79
2022/09/04 07:01:16;;;;;;;0.40;0.40;;;;;;;10.89;100.00;99816.59;4999135;28;20569;-80
2022/09/04 07:03:59;;;;;;;0.40;0.40;;;;;;;10.82;100.00;99831.06;5031204;28;20368;-79
2022/09/04 07:06:45;;;;;;;0.30;0.30;;;;;;;10.61;100.00;99837.34;5032874;28;20065;-79
2022/09/04 07:09:16;;;;;;;0.40;0.40;;;;;;;10.68;100.00;99843.59;5029875;28;20056;-79
2022/09/04 07:12:02;;;;;;;0.50;0.50;;;;;;;11.35;100.00;99853.59;5028107;28;20095;-80
2022/09/04 07:14:44;;;;;;;0.40;0.40;;;;;;;11.74;100.00;99841.22;5009945;28;20036;-80
2022/09/04 07:17:35;;;;;;;0.40;0.40;;;;;;;11.79;100.00;99864.88;5029901;28;20025;-80
2022/09/04 07:20:16;;;;;;;0.30;0.30;;;;;;;11.53;100.00;99865.66;5006112;28;20042;-78
2022/09/04 07:22:57;;;;;;;0.50;0.50;;;;;;;12.02;100.00;99883.38;5030197;28;20365;-78
2022/09/04 07:25:28;;;;;;;0.60;0.60;;;;;;;13.98;100.00;99883.09;5026747;28;20101;-80
2022/09/04 07:28:51;;;;;;;0.50;0.50;;;;;;;15.53;97.54;99887.53;5030499;28;20502;-79
2022/09/04 07:31:28;;;;;;;0.50;0.50;;;;;;;16.27;92.07;99888.09;4950860;28;20030;-79
2022/09/04 07:34:14;;;;;;;0.50;0.50;;;;;;;16.31;92.24;99898.47;5028232;28;20460;-78
2022/09/04 07:37:22;;;;;;;0.47;0.47;;;;;;;16.60;92.68;99891.28;5025299;28;20071;-79
2022/09/04 07:40:19;;;;;;;0.57;0.57;;;;;;;15.82;94.35;99895.91;4968077;28;20105;-79
2022/09/04 07:42:47;;;;;;;0.50;0.50;;;;;;;16.94;88.53;99910.53;4974364;28;20034;-80
2022/09/04 07:45:22;;;;;;;0.55;0.55;;;;;;;17.52;84.58;99899.50;5020570;28;20055;-79
2022/09/04 07:48:11;;;;;;;0.60;0.60;;;;;;;18.04;82.63;99936.63;5032195;28;20544;-80
2022/09/04 07:51:08;;;;;;;0.57;0.57;;;;;;;18.38;78.79;99937.50;5013882;28;20041;-79
2022/09/04 07:54:12;;;;;;;0.50;0.50;;;;;;;18.45;77.41;99921.81;5025747;28;20026;-79
2022/09/04 07:56:59;;;;;;;0.70;0.70;;;;;;;18.54;76.80;99922.22;5011377;28;20041;-81
2022/09/04 07:59:33;;;;;;;0.50;0.50;;;;;;;18.88;76.77;99923.03;5029812;28;20072;-80
2022/09/04 08:02:22;;;;;;;0.50;0.50;;;;;;;18.91;75.60;99926.34;5029294;28;20025;-79
2022/09/04 08:05:10;;;;;;;0.60;0.60;;;;;;;19.30;75.88;99940.75;5026103;28;20056;-80
2022/09/04 08:07:38;;;;;;;0.60;0.60;;;;;;;19.76;75.06;99954.94;5028452;28;20021;-80
2022/09/04 08:10:10;;;;;;;0.60;0.60;;;;;;;20.37;72.51;99963.72;5030106;28;20041;-80
2022/09/04 08:12:45;;;;;;;0.60;0.60;;;;;;;20.22;69.41;99969.06;5031124;28;20037;-80
2022/09/04 08:15:25;;;;;;;0.68;0.68;;;;;;;20.07;71.55;99972.47;5030218;28;20045;-80
2022/09/04 08:18:03;;;;;;;0.60;0.60;;;;;;;20.23;72.48;99987.09;5011855;28;20034;-80
2022/09/04 08:20:45;;;;;;;0.60;0.60;;;;;;;20.64;72.35;99987.50;5027972;28;20048;-80
2022/09/04 08:23:28;;;;;;;2.40;2.25;;;;;;;21.26;71.44;99975.03;4998017;28;20042;-80
2022/09/04 08:25:57;;;;;;;1.50;1.40;;;;;;;21.46;67.88;100005.25;5026995;28;20045;-80
2022/09/04 08:28:23;;;;;;;1.25;0.98;;;;;;;21.41;68.48;99998.94;5013071;28;20179;-80
2022/09/04 08:31:08;;;;;;;2.30;1.58;;;;;;;21.63;69.02;99998.75;5029085;28;20116;-79
2022/09/04 08:33:44;;;;;;;4.68;1.60;;;;;;;22.20;68.61;100007.97;5014449;28;20067;-80
2022/09/04 08:36:20;;;;;;;3.33;1.80;;;;;;;22.32;67.52;100016.75;5008568;28;20065;-80
2022/09/04 08:38:54;;;;;;;3.28;1.63;;;;;;;22.59;66.76;100021.97;5026160;28;20072;-80
2022/09/04 08:41:50;;;;;;;1.88;1.67;;;;;;;22.54;65.41;100021.97;5013870;28;20471;-80
2022/09/04 08:44:28;;;;;;;3.50;1.40;;;;;;;22.34;66.70;100020.88;5024907;28;20035;-80
2022/09/04 08:47:12;;;;;;;5.32;1.75;;;;;;;22.41;66.10;100023.34;5027227;28;20091;-79
2022/09/04 08:49:52;;;;;;;1.63;1.17;;;;;;;22.42;66.21;100037.88;5028840;28;20065;-79
2022/09/04 08:52:52;;;;;;;1.40;1.10;;;;;;;22.59;64.30;100035.69;5032084;28;20382;-79
2022/09/04 08:56:17;;;;;;;1.05;0.88;;;;;;;21.91;67.37;100038.50;5023549;28;20375;-79
2022/09/04 08:58:48;;;;;;;1.75;1.00;;;;;;;22.04;68.79;100043.47;4968458;28;20030;-79
2022/09/04 09:01:29;;;;;;;0.85;0.82;;;;;;;22.50;66.16;100062.00;4964642;28;20109;-78
2022/09/04 09:04:25;;;;;;;2.65;1.10;;;;;;;22.65;65.90;100058.41;5018464;28;20053;-79
2022/09/04 09:06:51;;;;;;;1.92;1.08;;;;;;;22.85;64.67;100041.16;5006131;28;20049;-78
2022/09/04 09:09:45;;;;;;;3.25;2.25;;;;;;;23.06;65.11;100064.75;5029649;28;20060;-78
2022/09/04 09:12:34;;;;;;;6.40;3.67;;;;;;;23.50;66.92;100066.88;5020495;28;20127;-78
2022/09/04 09:15:12;;;;;;;1.20;1.10;;;;;;;24.03;59.69;100067.25;5010009;28;20475;-78
2022/09/04 09:17:39;;;;;;;2.05;1.30;;;;;;;23.12;62.33;100069.13;5029621;28;20038;-77
2022/09/04 09:20:30;;;;;;;1.73;0.93;;;;;;;21.90;66.78;100048.66;5011718;28;20030;-78
2022/09/04 09:23:15;;;;;;;2.72;2.22;;;;;;;22.38;68.09;100056.75;4996614;28;20033;-77
2022/09/04 09:26:08;;;;;;;5.13;1.85;;;;;;;22.67;68.24;100050.75;5030883;28;20256;-78
2022/09/04 09:29:11;;;;;;;2.05;1.50;;;;;;;23.80;63.95;100054.19;5028575;28;20026;-78
2022/09/04 09:31:45;;;;;;;2.45;1.20;;;;;;;24.10;63.53;100053.22;5013212;28;20094;-78
2022/09/04 09:34:46;;;;;;;2.20;1.20;;;;;;;25.24;62.95;100063.13;5029165;28;20123;-78
2022/09/04 09:37:49;;;;;;;4.35;1.77;;;;;;;25.31;60.37;100071.84;5048721;28;20029;-78
2022/09/04 09:40:59;;;;;;;2.42;0.90;;;;;;;25.32;57.93;100065.22;5031760;28;20882;-78
2022/09/04 09:44:09;;;;;;;4.43;1.95;;;;;;;25.39;61.42;100060.22;5030920;28;20065;-78
2022/09/04 09:46:57;;;;;;;3.25;1.80;;;;;;;26.23;60.10;100076.28;5032294;28;20431;-78
2022/09/04 09:49:43;;;;;;;1.92;1.23;;;;;;;26.48;57.70;100077.84;5033134;28;20040;-78
2022/09/04 09:52:33;;;;;;;4.75;1.80;;;;;;;26.50;57.92;100069.28;5029063;28;20120;-78
2022/09/04 09:55:26;;;;;;;4.10;2.15;;;;;;;27.11;53.87;100081.28;4997989;28;20471;-78
2022/09/04 09:58:31;;;;;;;3.85;1.48;;;;;;;26.94;47.23;100076.34;5027550;28;20039;-78
2022/09/04 10:01:24;;;;;;;3.60;1.85;;;;;;;27.34;46.31;100083.13;5028108;28;20065;-78
2022/09/04 10:04:15;;;;;;;4.03;1.92;;;;;;;27.65;43.38;100081.69;5027502;28;20038;-78
2022/09/04 10:06:52;;;;;;;2.40;1.13;;;;;;;27.38;41.51;100081.38;5032802;28;20490;-77
2022/09/04 10:09:42;;;;;;;3.80;3.10;;;;;;;27.05;40.15;100072.28;5016755;28;20038;-77
2022/09/04 10:12:49;;;;;;;2.22;1.00;;;;;;;25.45;42.31;100059.03;5030976;28;20091;-78
2022/09/04 10:15:24;;;;;;;5.55;2.67;;;;;;;24.46;44.45;100053.84;5030001;28;20395;-77
2022/09/04 10:18:27;;;;;;;0.95;0.60;;;;;;;21.94;49.33;100073.59;5031770;28;20077;-78
2022/09/04 10:20:56;;;;;;;1.48;0.93;;;;;;;24.95;42.66;100054.81;5015813;28;20040;-77
2022/09/04 10:23:26;;;;;;;2.20;1.30;;;;;;;26.83;38.58;100061.06;5034214;28;20036;-77
2022/09/04 10:26:29;;;;;;;1.50;1.05;;;;;;;27.63;36.33;100069.03;5016271;28;20030;-77
2022/09/04 10:29:27;;;;;;;3.65;1.13;;;;;;;28.40;34.48;100067.41;5028917;28;20068;-77
2022/09/04 10:31:53;;;;;;;4.63;3.22;;;;;;;29.00;33.10;100048.81;5032431;28;20033;-77
2022/09/04 10:34:40;;;;;;;2.10;0.95;;;;;;;29.11;32.82;100061.31;5033171;28;20092;-77
2022/09/04 10:37:18;;;;;;;8.07;3.25;;;;;;;28.08;33.65;100062.03;5014247;28;20072;-78
2022/09/04 10:43:25;;;;;;;2.40;1.58;;;;;;;30.42;30.88;100065.34;5026361;28;20060;-78
2022/09/04 10:46:01;;;;;;;8.65;4.53;;;;;;;31.38;28.97;100052.16;5032274;28;20063;-78
2022/09/04 10:48:53;;;;;;;2.78;1.00;;;;;;;31.20;26.65;100067.22;5031823;28;20033;-79
2022/09/04 10:51:21;;;;;;;;;;;;;;;30.19;28.04;100065.47;5015969;28;20033;-76
2022/09/04 10:54:19;;;;;;;1.63;1.20;;;;;;;30.08;28.93;100069.66;5030605;28;19913;-76
2022/09/04 10:57:00;;;;;;;1.95;1.08;;;;;;;24.84;36.37;100065.09;5031349;28;20499;-77
2022/09/04 10:59:35;;;;;;;2.00;1.30;;;;;;;23.26;40.24;100053.78;5032225;28;20041;-76
2022/09/04 11:02:01;;;;;;;2.35;0.90;;;;;;;23.70;39.95;100041.28;5032055;28;20033;-76
2022/09/04 11:04:45;;;;;;;4.30;1.40;;;;;;;22.00;44.08;100064.28;5032801;28;20438;-76
2022/09/04 11:07:26;;;;;;;1.92;1.30;;;;;;;21.72;47.22;100069.13;5031919;28;20029;-77
2022/09/04 11:10:56;;;;;;;3.65;1.10;;;;;;;22.81;45.03;100060.06;5026193;28;20041;-77
2022/09/04 11:13:25;;;;;;;1.42;1.23;;;;;;;24.05;42.97;100069.72;5006703;28;20326;-76
2022/09/04 11:16:28;;;;;;;2.30;1.10;;;;;;;27.83;35.02;100072.53;4993978;28;20081;-77
2022/09/04 11:19:32;;;;;;;2.22;0.70;;;;;;;28.40;32.43;100064.66;5031838;28;20057;-76
2022/09/04 11:21:57;;;;;;;4.32;2.40;;;;;;;30.31;31.15;100056.53;5026284;28;20060;-76
2022/09/04 11:25:06;;;;;;;1.38;1.27;;;;;;;31.02;29.30;100072.81;5032744;28;20431;-76
2022/09/04 11:28:05;;;;;;;14.77;13.38;;;;;;;31.29;29.93;100065.25;4997900;28;20367;-76
2022/09/04 11:31:03;;;;;;;1.92;1.17;;;;;;;31.68;27.18;100046.66;5013122;28;20492;-76
2022/09/04 11:33:47;;;;;;;1.98;1.30;;;;;;;31.25;27.79;100067.88;4995035;28;20039;-77
2022/09/04 11:36:18;;;;;;;2.40;1.10;;;;;;;30.80;28.44;100056.31;5031502;28;20045;-77
2022/09/04 11:38:50;;;;;;;4.93;1.75;;;;;;;29.92;29.89;100046.31;5028762;28;20038;-77
2022/09/04 11:41:37;;;;;;;5.75;2.25;;;;;;;29.24;31.42;100051.25;5032783;28;20139;-77
2022/09/04 11:44:24;;;;;;;4.30;2.30;;;;;;;28.00;33.19;100049.81;5026978;28;20034;-76
2022/09/04 11:47:14;;;;;;;3.70;1.88;;;;;;;26.48;35.06;100057.75;5029312;28;20075;-77
2022/09/04 11:49:57;;;;;;;2.22;1.48;;;;;;;27.92;33.95;100067.09;5031933;28;20033;-76
2022/09/04 11:52:55;;;;;;;3.60;1.70;;;;;;;27.50;34.26;100067.09;5032369;28;20037;-77
2022/09/04 11:55:36;;;;;;;2.08;1.02;;;;;;;26.41;34.46;100073.81;5013466;28;20032;-76
2022/09/04 11:58:02;;;;;;;4.13;1.02;;;;;;;25.46;35.68;100046.13;4998648;28;20365;-76
2022/09/04 12:00:42;;;;;;;2.00;1.05;;;;;;;25.30;37.08;100061.13;5030826;28;20494;-76
2022/09/04 12:03:39;;;;;;;8.95;5.07;;;;;;;25.29;36.95;100065.00;4999005;28;20048;-76
2022/09/04 12:06:09;;;;;;;16.90;10.55;;;;;;;28.92;31.47;100067.84;5012367;28;20037;-77
2022/09/04 12:08:53;;;;;;;12.43;8.43;;;;;;;29.31;30.79;100062.72;5014508;28;20044;-76
2022/09/04 12:11:44;;;;;;;12.95;9.77;;;;;;;29.52;29.27;100057.44;5014043;28;20065;-77
2022/09/04 12:14:14;;;;;;;1.97;0.70;;;;;;;29.90;28.35;100062.47;5030742;28;20033;-77
2022/09/04 12:17:09;;;;;;;1.67;1.38;;;;;;;29.89;28.82;100069.16;5014126;28;20059;-77
2022/09/04 12:19:58;;;;;;;1.35;1.05;;;;;;;30.43;28.96;100075.28;5014064;28;20041;-77
2022/09/04 12:23:02;;;;;;;0.73;0.63;;;;;;;29.86;27.64;100050.41;5013551;28;20029;-75
2022/09/04 12:25:31;;;;;;;0.70;0.70;;;;;;;28.42;29.93;100051.34;5008526;28;20037;-77
2022/09/04 12:28:17;;;;;;;0.73;0.60;;;;;;;26.00;33.87;100055.13;5031358;28;20132;-77
2022/09/04 12:30:56;;;;;;;3.55;0.95;;;;;;;24.56;36.72;100047.47;5029846;28;20116;-75
2022/09/04 12:33:27;;;;;;;3.38;0.85;;;;;;;24.37;37.03;100050.03;5013879;28;20025;-76
2022/09/04 12:36:18;;;;;;;1.42;1.05;;;;;;;27.96;32.46;100062.59;5023348;28;20087;-76
2022/09/04 12:38:54;;;;;;;1.35;1.08;;;;;;;30.24;28.29;100057.00;5027270;28;20018;-77
2022/09/04 12:41:28;;;;;;;3.30;1.10;;;;;;;29.89;28.59;100045.00;5029960;28;20113;-77
2022/09/04 12:44:12;;;;;;;3.67;1.90;;;;;;;31.21;27.74;100061.34;5030227;28;20021;-77
2022/09/04 12:46:59;;;;;;;2.55;1.10;;;;;;;32.89;25.68;100061.63;5008297;28;20065;-77
2022/09/04 12:49:36;;;;;;;1.88;1.00;;;;;;;32.06;25.88;100048.56;4997018;28;20025;-77
2022/09/04 12:52:24;;;;;;;0.80;0.80;;;;;;;32.03;25.83;100050.06;5031316;28;20072;-77